Terminal Aerodrome Forecast
Issued by NWS

Home | Current Version | Previous Version | Text Only | Print | Product List | Glossary Off
Versions: 1 2 3 4 5 6 7 8 9 10 11 12 13 14 15 16 17 18

000
FTUS43 KGRB 061800 AAA
TAFMTW
TAF AMD
KMTW 061850Z 0619/0718 12005KT 1/4SM -DZ FG BKN002
      TEMPO 0620/0623 1 1/2SM BR BKN004
     FM062300 11004KT 1SM BR BKN006
     FM070200 08004KT 1/2SM FG BKN003
      TEMPO 0704/0712 1/4SM FG BKN001
     FM071500 17013G22KT 2SM BR BKN012
      AMD NOT SKED=

USA.gov is the U.S. government's official web portal to all federal, state and local government web resources and services.